createdAt,value
2022-10-12T00:00:05.695Z,9.40
2022-10-12T00:04:27.074Z,9.27
2022-10-12T00:08:42.231Z,9.57
2022-10-12T00:12:55.881Z,9.15
2022-10-12T00:17:09.735Z,10.23
2022-10-12T00:21:25.874Z,9.93
2022-10-12T00:25:40.916Z,9.23
2022-10-12T00:29:54.562Z,8.85
2022-10-12T00:34:08.328Z,9.17
2022-10-12T00:38:24.074Z,9.68
2022-10-12T00:42:37.721Z,8.80
2022-10-12T00:47:00.459Z,9.87
2022-10-12T00:51:15.395Z,9.30
2022-10-12T00:55:35.736Z,9.02
2022-10-12T00:59:52.756Z,9.23
2022-10-12T01:04:08.476Z,9.93
2022-10-12T01:08:22.644Z,9.20
2022-10-12T01:12:38.643Z,8.32
2022-10-12T01:16:56.203Z,9.03
2022-10-12T01:21:18.347Z,9.00
2022-10-12T01:25:47.208Z,8.38
2022-10-12T01:30:13.002Z,8.93
2022-10-12T01:34:34.379Z,8.65
2022-10-12T01:38:54.692Z,8.75
2022-10-12T01:43:09.572Z,8.33
2022-10-12T01:47:24.645Z,7.05
2022-10-12T01:51:47.865Z,8.25
2022-10-12T01:56:12.478Z,8.77
2022-10-12T02:00:26.289Z,8.43
2022-10-12T02:04:47.452Z,8.65
2022-10-12T02:09:07.094Z,8.10
2022-10-12T02:13:23.393Z,7.83
2022-10-12T02:17:38.133Z,8.25
2022-10-12T02:21:57.170Z,8.27
2022-10-12T02:26:12.381Z,8.57
2022-10-12T02:30:27.073Z,8.23
2022-10-12T02:34:45.575Z,8.57
2022-10-12T02:39:06.650Z,8.40
2022-10-12T02:43:24.463Z,7.80
2022-10-12T02:47:39.148Z,8.13
2022-10-12T02:51:54.259Z,8.15
2022-10-12T02:56:13.133Z,8.23
2022-10-12T03:00:26.973Z,7.75
2022-10-12T03:04:40.886Z,8.00
2022-10-12T03:08:57.041Z,7.43
2022-10-12T03:13:12.117Z,7.18
2022-10-12T03:17:26.175Z,7.55
2022-10-12T03:21:39.940Z,7.78
2022-10-12T03:25:54.041Z,7.87
2022-10-12T03:30:11.424Z,8.25
2022-10-12T03:34:25.389Z,7.53
2022-10-12T03:38:39.129Z,7.77
2022-10-12T03:42:52.784Z,7.38
2022-10-12T03:47:07.841Z,7.22
2022-10-12T03:51:21.547Z,7.33
2022-10-12T03:55:35.552Z,7.32
2022-10-12T03:59:49.637Z,7.22
2022-10-12T04:04:04.828Z,8.23
2022-10-12T04:08:21.463Z,7.63
2022-10-12T04:12:35.081Z,7.78
2022-10-12T04:16:48.858Z,8.13
2022-10-12T04:21:04.846Z,9.00
2022-10-12T04:25:19.067Z,8.25
2022-10-12T04:29:33.310Z,7.35
2022-10-12T04:33:47.126Z,7.60
2022-10-12T04:38:05.535Z,4.55
2022-10-12T04:42:19.159Z,5.90
2022-10-12T04:46:33.114Z,6.65
2022-10-12T04:50:46.929Z,6.03
2022-10-12T04:55:02.130Z,6.78
2022-10-12T04:59:16.265Z,7.20
2022-10-12T05:03:30.030Z,8.23
2022-10-12T05:07:43.702Z,7.72
2022-10-12T05:11:58.839Z,8.02
2022-10-12T05:16:12.563Z,8.53
2022-10-12T05:20:26.300Z,8.07
2022-10-12T05:24:39.955Z,8.77
2022-10-12T05:28:55.029Z,7.82
2022-10-12T05:33:09.365Z,7.80
2022-10-12T05:37:23.058Z,8.00
2022-10-12T05:41:37.106Z,9.30
2022-10-12T05:45:52.163Z,8.67
2022-10-12T05:50:06.559Z,9.88
2022-10-12T05:54:21.553Z,13.15
2022-10-12T05:58:35.270Z,9.07
2022-10-12T06:02:50.326Z,8.95
2022-10-12T06:07:04.178Z,8.70
2022-10-12T06:11:21.226Z,8.48
2022-10-12T06:15:36.373Z,8.47
2022-10-12T06:19:51.377Z,8.75
2022-10-12T06:24:05.457Z,8.35
2022-10-12T06:28:21.261Z,8.20
2022-10-12T06:32:35.689Z,8.30
2022-10-12T06:36:51.277Z,8.50
2022-10-12T06:41:04.964Z,8.30
2022-10-12T06:45:19.159Z,8.20
2022-10-12T06:49:32.810Z,7.78
2022-10-12T06:53:47.877Z,6.65
2022-10-12T06:58:01.576Z,5.70
2022-10-12T07:02:15.405Z,5.00
2022-10-12T07:06:29.213Z,5.90
2022-10-12T07:10:44.252Z,5.00
2022-10-12T07:14:58.975Z,5.00
2022-10-12T07:19:12.874Z,5.22
2022-10-12T07:23:26.891Z,5.30
2022-10-12T07:27:42.189Z,5.30
2022-10-12T07:31:56.030Z,5.40
2022-10-12T07:36:15.641Z,5.25
2022-10-12T07:40:33.517Z,4.87
2022-10-12T07:44:48.614Z,5.10
2022-10-12T07:49:02.981Z,4.35
2022-10-12T07:53:17.283Z,4.83
2022-10-12T07:57:31.032Z,4.28
2022-10-12T08:01:46.150Z,4.20
2022-10-12T08:05:59.900Z,4.40
2022-10-12T08:10:13.699Z,4.10
2022-10-12T08:14:27.432Z,3.85
2022-10-12T08:18:43.379Z,3.90
2022-10-12T08:22:57.081Z,3.77
2022-10-12T08:27:11.600Z,4.43
2022-10-12T08:31:25.608Z,4.38
2022-10-12T08:35:41.799Z,4.77
2022-10-12T08:39:58.588Z,5.60
2022-10-12T08:44:54.793Z,5.40
2022-10-12T08:49:14.134Z,5.70
2022-10-12T08:53:32.959Z,4.55
2022-10-12T08:57:49.895Z,4.47
2022-10-12T09:02:23.019Z,3.85
2022-10-12T09:06:42.024Z,3.47
2022-10-12T09:11:09.730Z,3.40
2022-10-12T09:15:27.574Z,4.32
2022-10-12T09:19:43.550Z,3.20
2022-10-12T09:23:58.559Z,3.85
2022-10-12T09:28:18.400Z,3.40
2022-10-12T09:32:58.933Z,3.33
2022-10-12T09:37:18.041Z,5.85
2022-10-12T09:41:39.088Z,3.60
2022-10-12T09:45:54.456Z,4.22
2022-10-12T09:50:09.505Z,2.90
2022-10-12T09:54:25.463Z,3.33
2022-10-12T09:58:44.956Z,3.53
2022-10-12T10:03:01.509Z,2.80
2022-10-12T10:07:26.233Z,3.30
2022-10-12T10:11:40.199Z,3.00
2022-10-12T10:16:04.625Z,2.77
2022-10-12T10:20:31.908Z,3.20
2022-10-12T10:24:52.793Z,2.88
2022-10-12T10:29:33.917Z,3.08
2022-10-12T10:34:05.139Z,3.40
2022-10-12T10:38:20.221Z,3.70
2022-10-12T10:42:35.827Z,2.90
2022-10-12T10:46:49.631Z,3.27
2022-10-12T10:51:05.905Z,3.42
2022-10-12T10:55:24.562Z,2.72
2022-10-12T10:59:44.377Z,3.50
2022-10-12T11:04:02.591Z,3.10
2022-10-12T11:08:21.908Z,3.38
2022-10-12T11:12:46.656Z,2.80
2022-10-12T11:17:05.215Z,2.90
2022-10-12T11:21:22.858Z,2.63
2022-10-12T11:25:48.965Z,3.35
2022-10-12T11:30:13.490Z,3.10
2022-10-12T11:34:29.690Z,3.30
2022-10-12T11:38:47.084Z,3.28
2022-10-12T11:43:06.733Z,3.37
2022-10-12T11:47:32.239Z,3.30
2022-10-12T11:51:48.263Z,3.60
2022-10-12T11:56:09.132Z,2.80
2022-10-12T12:00:27.181Z,3.23
2022-10-12T12:04:45.822Z,2.80
2022-10-12T12:09:07.516Z,3.15
2022-10-12T12:13:26.866Z,3.03
2022-10-12T12:17:40.672Z,2.85
2022-10-12T12:22:18.127Z,3.00
2022-10-12T12:26:32.516Z,3.07
2022-10-12T12:30:57.624Z,3.58
2022-10-12T12:35:31.935Z,3.05
2022-10-12T12:39:53.569Z,3.00
2022-10-12T12:44:40.470Z,3.00
2022-10-12T12:49:04.754Z,2.92
2022-10-12T12:53:21.727Z,3.03
2022-10-12T12:57:56.463Z,3.10
2022-10-12T13:02:30.050Z,3.58
2022-10-12T13:07:18.029Z,4.00
2022-10-12T13:11:49.795Z,2.70
2022-10-12T13:16:57.184Z,3.78
2022-10-12T13:20:56.525Z,3.65
2022-10-12T13:25:18.060Z,3.20
2022-10-12T13:29:40.108Z,3.30
2022-10-12T13:34:01.227Z,4.05
2022-10-12T13:38:22.485Z,3.80
2022-10-12T13:42:36.733Z,3.60
2022-10-12T13:46:52.076Z,3.70
2022-10-12T13:51:23.450Z,3.50
2022-10-12T13:55:37.231Z,3.80
2022-10-12T13:59:57.627Z,3.40
2022-10-12T14:04:11.996Z,3.25
2022-10-12T14:08:28.893Z,3.83
2022-10-12T14:12:44.134Z,3.90
2022-10-12T14:16:57.854Z,3.60
2022-10-12T14:21:23.995Z,3.90
2022-10-12T14:25:40.271Z,3.83
2022-10-12T14:30:04.948Z,2.88
2022-10-12T14:34:41.906Z,3.85
2022-10-12T14:38:59.045Z,3.80
2022-10-12T14:43:24.584Z,3.75
2022-10-12T14:47:39.944Z,3.67
2022-10-12T14:51:55.352Z,4.07
2022-10-12T14:56:10.647Z,3.90
2022-10-12T15:00:28.597Z,4.07
2022-10-12T15:04:42.533Z,3.55
2022-10-12T15:08:56.283Z,4.30
2022-10-12T15:13:13.316Z,3.72
2022-10-12T15:17:28.530Z,3.35
2022-10-12T15:21:42.269Z,3.97
2022-10-12T15:25:58.086Z,3.53
2022-10-12T15:30:13.257Z,3.92
2022-10-12T15:34:28.657Z,3.85
2022-10-12T15:38:42.423Z,3.93
2022-10-12T15:42:56.328Z,4.15
2022-10-12T15:47:11.755Z,4.00
2022-10-12T15:51:27.053Z,4.43
2022-10-12T15:55:40.654Z,3.97
2022-10-12T15:59:54.698Z,4.30
2022-10-12T16:04:08.646Z,4.40
2022-10-12T16:08:24.320Z,4.75
2022-10-12T16:12:38.630Z,4.20
2022-10-12T16:16:52.473Z,4.55
2022-10-12T16:21:06.428Z,4.87
2022-10-12T16:25:23.999Z,5.20
2022-10-12T16:29:38.836Z,5.05
2022-10-12T16:33:52.869Z,5.00
2022-10-12T16:38:06.626Z,4.93
2022-10-12T16:42:21.947Z,5.20
2022-10-12T16:46:36.906Z,4.80
2022-10-12T16:50:50.730Z,4.68
2022-10-12T16:55:05.472Z,8.75
2022-10-12T16:59:20.621Z,5.40
2022-10-12T17:03:34.319Z,4.93
2022-10-12T17:07:48.012Z,4.80
2022-10-12T17:12:01.861Z,5.45
2022-10-12T17:16:34.644Z,4.67
2022-10-12T17:20:50.746Z,4.80
2022-10-12T17:25:07.488Z,4.82
2022-10-12T17:29:22.268Z,4.87
2022-10-12T17:33:37.920Z,5.35
2022-10-12T17:37:51.552Z,5.90
2022-10-12T17:42:05.882Z,5.88
2022-10-12T17:46:22.571Z,6.20
2022-10-12T17:50:37.948Z,6.05
2022-10-12T17:54:51.905Z,5.95
2022-10-12T17:59:06.064Z,5.60
2022-10-12T18:03:25.807Z,6.63
2022-10-12T18:07:41.166Z,6.85
2022-10-12T18:11:54.960Z,6.60
2022-10-12T18:16:11.224Z,6.82
2022-10-12T18:20:28.856Z,6.63
2022-10-12T18:24:44.161Z,6.40
2022-10-12T18:29:01.005Z,5.67
2022-10-12T18:33:15.514Z,6.20
2022-10-12T18:37:29.435Z,6.22
2022-10-12T18:41:44.576Z,6.10
2022-10-12T18:45:58.277Z,4.07
2022-10-12T18:50:12.424Z,5.65
2022-10-12T18:54:26.098Z,5.83
2022-10-12T18:58:42.036Z,6.10
2022-10-12T19:02:55.830Z,6.57
2022-10-12T19:07:09.538Z,6.20
2022-10-12T19:11:24.491Z,6.40
2022-10-12T19:15:39.880Z,6.20
2022-10-12T19:19:53.524Z,6.78
2022-10-12T19:24:09.508Z,6.93
2022-10-12T19:28:23.149Z,7.13
2022-10-12T19:32:38.153Z,7.20
2022-10-12T19:36:52.788Z,6.83
2022-10-12T19:41:07.364Z,6.68
2022-10-12T19:45:20.986Z,6.07
2022-10-12T19:49:37.852Z,7.00
2022-10-12T19:53:54.642Z,6.83
2022-10-12T19:58:08.860Z,7.10
2022-10-12T20:02:22.493Z,7.15
2022-10-12T20:06:38.898Z,7.10
2022-10-12T20:10:52.892Z,6.68
2022-10-12T20:15:08.101Z,7.65
2022-10-12T20:19:21.809Z,7.43
2022-10-12T20:23:37.173Z,7.57
2022-10-12T20:27:50.799Z,7.95
2022-10-12T20:32:04.562Z,7.82
2022-10-12T20:36:21.803Z,7.00
2022-10-12T20:40:36.899Z,7.30
2022-10-12T20:44:51.129Z,7.72
2022-10-12T20:49:05.527Z,7.10
2022-10-12T20:53:19.189Z,6.88
2022-10-12T20:57:34.222Z,6.53
2022-10-12T21:01:47.977Z,7.40
2022-10-12T21:06:06.187Z,7.45
2022-10-12T21:10:19.923Z,7.30
2022-10-12T21:14:35.552Z,7.35
2022-10-12T21:18:49.568Z,7.60
2022-10-12T21:23:03.269Z,7.32
2022-10-12T21:27:17.003Z,7.20
2022-10-12T21:31:33.090Z,7.83
2022-10-12T21:35:47.317Z,8.13
2022-10-12T21:40:01.031Z,6.55
2022-10-12T21:44:15.780Z,7.83
2022-10-12T21:48:31.455Z,6.38
2022-10-12T21:52:49.641Z,8.70
2022-10-12T21:57:04.252Z,8.00
2022-10-12T22:01:20.984Z,8.47
2022-10-12T22:05:41.198Z,7.63
2022-10-12T22:09:54.837Z,7.65
2022-10-12T22:14:09.980Z,6.73
2022-10-12T22:18:23.643Z,7.50
2022-10-12T22:22:38.728Z,7.70
2022-10-12T22:26:52.433Z,8.47
2022-10-12T22:31:08.190Z,7.57
2022-10-12T22:35:22.021Z,8.30
2022-10-12T22:39:37.302Z,8.57
2022-10-12T22:43:52.402Z,9.13
2022-10-12T22:48:06.506Z,9.00
2022-10-12T22:52:20.623Z,8.23
2022-10-12T22:56:36.058Z,8.60
2022-10-12T23:00:49.918Z,9.07
2022-10-12T23:05:04.841Z,9.60
2022-10-12T23:09:18.465Z,9.30
2022-10-12T23:13:34.278Z,9.02
2022-10-12T23:17:48.538Z,9.50
2022-10-12T23:22:02.902Z,9.98
2022-10-12T23:26:18.670Z,9.57
2022-10-12T23:30:33.711Z,9.70
2022-10-12T23:34:48.684Z,9.82
2022-10-12T23:39:04.083Z,9.87
2022-10-12T23:43:17.816Z,9.98
2022-10-12T23:47:32.843Z,9.95
2022-10-12T23:51:46.796Z,9.97
2022-10-12T23:56:00.706Z,9.90
